createdAt,value
2018-09-30T00:00:05.590Z,956.86
2018-09-30T00:00:40.857Z,956.84
2018-09-30T00:02:51.543Z,956.81
2018-09-30T00:04:00.950Z,956.82
2018-09-30T00:05:03.427Z,956.82
2018-09-30T00:07:04.636Z,956.74
2018-09-30T00:08:16.739Z,956.68
2018-09-30T00:09:04.595Z,956.73
2018-09-30T00:10:12.704Z,956.73
2018-09-30T00:11:12.705Z,956.65
2018-09-30T00:13:57.133Z,956.64
2018-09-30T00:14:37.768Z,956.64
2018-09-30T00:15:37.749Z,956.67
2018-09-30T00:16:36.887Z,956.61
2018-09-30T00:17:38.789Z,956.65
2018-09-30T00:18:40.048Z,956.60
2018-09-30T00:19:28.328Z,956.64
2018-09-30T00:20:37.822Z,956.68
2018-09-30T00:21:37.614Z,956.61
2018-09-30T00:22:37.625Z,956.63
2018-09-30T00:23:37.669Z,956.66
2018-09-30T00:24:28.231Z,956.62
2018-09-30T00:25:37.669Z,956.61
2018-09-30T00:26:38.835Z,956.57
2018-09-30T00:27:37.661Z,956.54
2018-09-30T00:28:38.759Z,956.58
2018-09-30T00:29:36.845Z,956.56
2018-09-30T00:30:38.921Z,956.53
2018-09-30T00:32:41.669Z,956.58
2018-09-30T00:33:50.922Z,956.53
2018-09-30T00:34:56.531Z,956.53
2018-09-30T00:35:50.946Z,956.44
2018-09-30T00:36:51.059Z,956.46
2018-09-30T00:37:50.860Z,956.45
2018-09-30T00:40:04.843Z,956.45
2018-09-30T00:42:18.905Z,956.40
2018-09-30T00:43:18.794Z,956.37
2018-09-30T00:44:28.710Z,956.35
2018-09-30T00:45:18.890Z,956.34
2018-09-30T00:46:28.246Z,956.36
2018-09-30T00:47:29.754Z,956.38
2018-09-30T00:48:28.237Z,956.30
2018-09-30T00:49:28.187Z,956.34
2018-09-30T00:50:28.223Z,956.32
2018-09-30T00:53:17.739Z,956.31
2018-09-30T00:55:31.526Z,956.29
2018-09-30T00:57:43.747Z,956.30
2018-09-30T01:00:05.756Z,956.22
2018-09-30T01:02:17.073Z,956.23
2018-09-30T01:04:29.725Z,956.19
2018-09-30T01:06:40.970Z,956.24
2018-09-30T01:07:50.546Z,956.19
2018-09-30T01:09:53.202Z,956.16
2018-09-30T01:11:04.975Z,956.16
2018-09-30T01:13:05.462Z,956.14
2018-09-30T01:14:16.632Z,956.12
2018-09-30T01:15:05.428Z,956.14
2018-09-30T01:17:16.674Z,956.11
2018-09-30T01:19:27.923Z,956.09
2018-09-30T01:21:39.984Z,956.12
2018-09-30T01:22:39.916Z,956.09
2018-09-30T01:23:49.329Z,956.15
2018-09-30T01:24:39.900Z,956.10
2018-09-30T01:25:51.913Z,956.12
2018-09-30T01:26:39.874Z,956.10
2018-09-30T01:27:49.234Z,956.00
2018-09-30T01:28:39.894Z,956.03
2018-09-30T01:29:51.578Z,955.94
2018-09-30T01:30:49.233Z,956.01
2018-09-30T01:31:51.654Z,955.96
2018-09-30T01:32:39.879Z,955.98
2018-09-30T01:33:39.757Z,955.99
2018-09-30T01:34:40.791Z,955.99
2018-09-30T01:38:05.593Z,955.96
2018-09-30T01:40:28.546Z,955.93
2018-09-30T01:42:29.350Z,955.86
2018-09-30T01:43:47.572Z,955.89
2018-09-30T01:44:29.249Z,955.86
2018-09-30T01:45:40.064Z,955.82
2018-09-30T01:46:39.955Z,955.88
2018-09-30T01:47:41.324Z,955.83
2018-09-30T01:48:39.868Z,955.89
2018-09-30T01:49:29.342Z,955.82
2018-09-30T01:50:38.748Z,955.84
2018-09-30T01:51:29.191Z,955.84
2018-09-30T01:53:41.597Z,955.79
2018-09-30T01:55:55.332Z,955.72
2018-09-30T01:57:04.945Z,955.73
2018-09-30T02:01:29.890Z,955.66
2018-09-30T02:03:43.727Z,955.69
2018-09-30T02:05:54.043Z,955.59
2018-09-30T02:06:53.951Z,955.60
2018-09-30T02:09:18.589Z,955.56
2018-09-30T02:10:28.201Z,955.60
2018-09-30T02:11:27.878Z,955.59
2018-09-30T02:12:29.773Z,955.58
2018-09-30T02:15:48.182Z,955.59
2018-09-30T02:16:48.170Z,955.53
2018-09-30T02:19:00.605Z,955.50
2018-09-30T02:20:10.035Z,955.54
2018-09-30T02:21:11.982Z,955.52
2018-09-30T02:22:09.036Z,955.51
2018-09-30T02:23:09.959Z,955.55
2018-09-30T02:24:10.006Z,955.56
2018-09-30T02:25:09.978Z,955.55
2018-09-30T02:26:11.252Z,955.54
2018-09-30T02:28:17.810Z,955.53
2018-09-30T02:32:51.293Z,955.57
2018-09-30T02:34:01.033Z,955.56
2018-09-30T02:34:51.113Z,955.60
2018-09-30T02:36:01.723Z,955.60
2018-09-30T02:36:52.006Z,955.59
2018-09-30T02:38:00.878Z,955.58
2018-09-30T02:38:51.074Z,955.61
2018-09-30T02:40:00.447Z,955.56
2018-09-30T02:41:05.881Z,955.57
2018-09-30T02:42:00.939Z,955.58
2018-09-30T02:42:51.000Z,955.51
2018-09-30T02:44:00.654Z,955.51
2018-09-30T02:46:49.186Z,955.53
2018-09-30T02:47:58.714Z,955.47
2018-09-30T02:48:49.086Z,955.51
2018-09-30T02:51:48.148Z,955.48
2018-09-30T02:52:59.786Z,955.52
2018-09-30T02:53:48.169Z,955.56
2018-09-30T02:54:58.870Z,955.60
2018-09-30T02:55:59.406Z,955.60
2018-09-30T02:56:57.543Z,955.67
2018-09-30T02:57:58.742Z,955.66
2018-09-30T02:59:20.669Z,955.66
2018-09-30T02:59:48.039Z,955.65
2018-09-30T03:00:59.459Z,955.59
2018-09-30T03:01:58.055Z,955.54
2018-09-30T03:02:57.495Z,955.55
2018-09-30T03:03:48.016Z,955.59
2018-09-30T03:06:12.242Z,955.54
2018-09-30T03:08:25.568Z,955.51
2018-09-30T03:13:10.782Z,955.52
2018-09-30T03:16:07.029Z,955.52
2018-09-30T03:18:13.944Z,955.47
2018-09-30T03:19:22.366Z,955.42
2018-09-30T03:21:42.126Z,955.45
2018-09-30T03:22:52.062Z,955.46
2018-09-30T03:23:51.834Z,955.51
2018-09-30T03:28:14.979Z,955.38
2018-09-30T03:29:14.986Z,955.46
2018-09-30T03:30:24.388Z,955.43
2018-09-30T03:31:16.296Z,955.40
2018-09-30T03:32:24.193Z,955.34
2018-09-30T03:33:24.243Z,955.38
2018-09-30T03:35:29.606Z,955.31
2018-09-30T03:36:29.475Z,955.26
2018-09-30T03:37:38.901Z,955.31
2018-09-30T03:39:42.162Z,955.33
2018-09-30T03:41:55.356Z,955.31
2018-09-30T03:42:54.376Z,955.27
2018-09-30T03:44:06.077Z,955.29
2018-09-30T03:45:04.893Z,955.26
2018-09-30T03:47:07.029Z,955.22
2018-09-30T03:48:15.540Z,955.26
2018-09-30T03:49:18.688Z,955.22
2018-09-30T03:50:15.021Z,955.26
2018-09-30T03:51:07.009Z,955.23
2018-09-30T03:52:17.464Z,955.21
2018-09-30T03:55:31.901Z,955.15
2018-09-30T03:56:41.504Z,955.16
2018-09-30T03:57:33.529Z,955.11
2018-09-30T03:58:31.825Z,955.14
2018-09-30T03:59:40.441Z,955.11
2018-09-30T04:00:41.169Z,955.14
2018-09-30T04:01:41.198Z,955.13
2018-09-30T04:02:31.883Z,955.18
2018-09-30T04:06:10.657Z,955.13
2018-09-30T04:11:34.224Z,955.06
2018-09-30T04:12:34.081Z,955.12
2018-09-30T04:15:32.258Z,955.08
2018-09-30T04:17:45.746Z,955.02
2018-09-30T04:18:47.322Z,954.99
2018-09-30T04:19:55.167Z,954.98
2018-09-30T04:22:09.518Z,955.00
2018-09-30T04:24:20.773Z,955.10
2018-09-30T04:25:36.108Z,954.89
2018-09-30T04:26:20.708Z,954.83
2018-09-30T04:27:20.651Z,954.88
2018-09-30T04:30:32.570Z,954.87
2018-09-30T04:32:40.404Z,954.91
2018-09-30T08:56:50.646Z,953.86
